This demonstration page uses our WeatherBlox Daily Observations layout. Learn more.

38.89511, -77.03637

Hourly Observations for June 22, 2015

Temp ( °F °C ) Dew Point ( °F °C ) Humidity (%) Winds ( mph kmh ) Pressure ( in mb ) Visibility ( mi km ) Precip ( " mm )
12:52 am 00:52 Mostly Cloudy 86 30 66 19 52 52 NW 9 15 29.91 1013 10 16.09344 0 0
1:52 am 01:52 Cloudy 84 29 66 19 55 55 NNW 8 13 29.91 1013 10 16.09344 0 0
2:52 am 02:52 Mostly Cloudy 81 27 66 19 62 62 NNW 6 9 29.94 1014 10 16.09344 0 0
3:52 am 03:52 Mostly Cloudy 81 27 66 19 62 62 NW 9 15 29.97 1015 10 16.09344 0 0
4:52 am 04:52 Mostly Cloudy 79 26 66 19 65 65 NNW 8 13 29.97 1015 10 16.09344 0 0
5:52 am 05:52 Partly Cloudy 79 26 66 19 65 65 NNW 10 17 29.97 1015 10 16.09344 0 0
6:52 am 06:52 Partly Cloudy 79 26 66 19 65 65 N 9 15 30.03 1017 10 16.09344 0 0
7:52 am 07:52 Partly Cloudy 82 28 68 20 62 62 NNW 8 13 30.03 1017 10 16.09344 0 0
8:52 am 08:52 Partly Cloudy 84 29 66 19 55 55 NNW 8 13 30.06 1018 10 16.09344 0 0
9:52 am 09:52 Partly Cloudy 84 29 66 19 55 55 NNW 10 17 30.06 1018 10 16.09344 0 0
10:52 am 10:52 Partly Cloudy 88 31 70 21 55 55 NNW 7 11 30.06 1018 10 16.09344 0 0
11:52 am 11:52 Partly Cloudy 88 31 70 21 55 55 ENE 5 7 30.03 1017 10 16.09344 0 0
12:52 pm 12:52 Partly Cloudy 91 33 64 18 41 41 Calm 30.03 1017 10 16.09344 0 0
1:52 pm 13:52 Partly Cloudy 91 33 64 18 41 41 Calm 30.03 1017 10 16.09344 0 0
2:52 pm 14:52 Partly Cloudy 93 34 63 17 36 36 NW 8 13 30.06 1018 10 16.09344 0 0
3:52 pm 15:52 Mostly Cloudy 91 33 63 17 38 38 W 9 15 30.03 1017 10 16.09344 0 0
4:52 pm 16:52 Mostly Cloudy 91 33 66 19 44 44 WSW 14 22 30.03 1017 10 16.09344 0 0
5:52 pm 17:52 Cloudy 91 33 63 17 38 38 SW 10 17 30 1016 10 16.09344 0 0
6:52 pm 18:52 Cloudy 91 33 64 18 41 41 SW 5 7 30 1016 10 16.09344 0 0
7:52 pm 19:52 Cloudy 88 31 68 20 52 52 SSW 7 11 30 1016 10 16.09344 0 0
8:52 pm 20:52 Mostly Cloudy 86 30 70 21 59 59 S 6 9 30 1016 10 16.09344 0 0
9:52 pm 21:52 Partly Cloudy 84 29 75 24 74 74 S 8 13 30 1016 10 16.09344 0 0
10:52 pm 22:52 Mostly Cloudy 84 29 72 22 66 66 S 12 19 30 1016 10 16.09344 0 0
11:52 pm 23:52 Mostly Cloudy 82 28 72 22 70 70 S 9 15 29.97 1015 10 16.09344 0 0

Powered by AerisWeather